sensor_id;sensor_type;location;lat;lon;timestamp;pressure;altitude;pressure_sealevel;temperature;humidity
75497;BME280;64074;47.540;19.072;2024-02-26T00:00:35;99844.03;;;10.35;97.72
75497;BME280;64074;47.540;19.072;2024-02-26T00:03:54;99831.63;;;10.57;96.95
75497;BME280;64074;47.540;19.072;2024-02-26T00:07:16;99838.91;;;10.47;96.68
75497;BME280;64074;47.540;19.072;2024-02-26T00:10:31;99844.16;;;10.30;97.18
75497;BME280;64074;47.540;19.072;2024-02-26T00:13:58;99833.91;;;10.41;96.61
75497;BME280;64074;47.540;19.072;2024-02-26T00:17:18;99841.31;;;10.35;97.00
75497;BME280;64074;47.540;19.072;2024-02-26T00:20:34;99835.91;;;10.35;96.94
75497;BME280;64074;47.540;19.072;2024-02-26T00:23:40;99829.47;;;10.45;96.79
75497;BME280;64074;47.540;19.072;2024-02-26T00:26:52;99843.81;;;10.45;96.35
75497;BME280;64074;47.540;19.072;2024-02-26T00:30:07;99831.13;;;10.55;95.87
75497;BME280;64074;47.540;19.072;2024-02-26T00:33:28;99830.81;;;10.56;95.91
75497;BME280;64074;47.540;19.072;2024-02-26T00:36:54;99828.97;;;10.43;96.49
75497;BME280;64074;47.540;19.072;2024-02-26T00:40:16;99821.94;;;10.64;95.43
75497;BME280;64074;47.540;19.072;2024-02-26T00:43:39;99821.72;;;10.52;96.02
75497;BME280;64074;47.540;19.072;2024-02-26T00:46:57;99812.97;;;10.55;96.00
75497;BME280;64074;47.540;19.072;2024-02-26T00:50:20;99818.25;;;10.60;95.85
75497;BME280;64074;47.540;19.072;2024-02-26T00:53:41;99820.72;;;10.70;95.03
75497;BME280;64074;47.540;19.072;2024-02-26T00:56:58;99810.97;;;10.92;94.13
75497;BME280;64074;47.540;19.072;2024-02-26T01:00:08;99815.03;;;10.81;94.39
75497;BME280;64074;47.540;19.072;2024-02-26T01:03:44;99810.38;;;10.72;94.60
75497;BME280;64074;47.540;19.072;2024-02-26T01:07:07;99806.84;;;10.94;94.49
75497;BME280;64074;47.540;19.072;2024-02-26T01:10:23;99802.41;;;10.98;93.26
75497;BME280;64074;47.540;19.072;2024-02-26T01:13:52;99804.94;;;10.95;93.47
75497;BME280;64074;47.540;19.072;2024-02-26T01:17:19;99796.03;;;10.72;94.99
75497;BME280;64074;47.540;19.072;2024-02-26T01:20:40;99803.59;;;10.61;94.70
75497;BME280;64074;47.540;19.072;2024-02-26T01:24:04;99796.81;;;10.50;95.20
75497;BME280;64074;47.540;19.072;2024-02-26T01:27:25;99796.66;;;10.46;95.48
75497;BME280;64074;47.540;19.072;2024-02-26T01:30:46;99799.75;;;10.40;96.28
75497;BME280;64074;47.540;19.072;2024-02-26T01:34:04;99794.56;;;10.43;96.13
75497;BME280;64074;47.540;19.072;2024-02-26T01:37:31;99793.66;;;10.57;95.75
75497;BME280;64074;47.540;19.072;2024-02-26T01:40:55;99785.50;;;10.70;94.69
75497;BME280;64074;47.540;19.072;2024-02-26T01:44:12;99786.13;;;10.98;93.49
75497;BME280;64074;47.540;19.072;2024-02-26T01:47:36;99791.09;;;11.05;93.01
75497;BME280;64074;47.540;19.072;2024-02-26T01:50:51;99788.88;;;11.07;93.03
75497;BME280;64074;47.540;19.072;2024-02-26T01:53:55;99781.97;;;11.01;93.35
75497;BME280;64074;47.540;19.072;2024-02-26T01:57:06;99783.72;;;10.97;93.16
75497;BME280;64074;47.540;19.072;2024-02-26T02:00:23;99785.31;;;10.98;93.11
75497;BME280;64074;47.540;19.072;2024-02-26T02:03:48;99780.91;;;10.79;93.97
75497;BME280;64074;47.540;19.072;2024-02-26T02:07:02;99774.81;;;10.74;93.87
75497;BME280;64074;47.540;19.072;2024-02-26T02:10:19;99781.03;;;10.74;94.03
75497;BME280;64074;47.540;19.072;2024-02-26T02:13:38;99778.22;;;10.88;93.74
75497;BME280;64074;47.540;19.072;2024-02-26T02:17:04;99785.31;;;10.67;94.42
75497;BME280;64074;47.540;19.072;2024-02-26T02:20:17;99779.00;;;10.58;94.95
75497;BME280;64074;47.540;19.072;2024-02-26T02:23:51;99776.38;;;10.66;94.60
75497;BME280;64074;47.540;19.072;2024-02-26T02:27:00;99792.69;;;10.75;94.20
75497;BME280;64074;47.540;19.072;2024-02-26T02:30:29;99783.91;;;11.00;93.01
75497;BME280;64074;47.540;19.072;2024-02-26T02:33:56;99790.16;;;11.09;92.55
75497;BME280;64074;47.540;19.072;2024-02-26T02:37:17;99785.69;;;11.14;91.62
75497;BME280;64074;47.540;19.072;2024-02-26T02:40:27;99785.69;;;11.14;91.38
75497;BME280;64074;47.540;19.072;2024-02-26T02:43:43;99776.91;;;11.08;92.19
75497;BME280;64074;47.540;19.072;2024-02-26T02:46:53;99779.16;;;11.15;92.08
75497;BME280;64074;47.540;19.072;2024-02-26T02:50:03;99781.38;;;11.13;91.36
75497;BME280;64074;47.540;19.072;2024-02-26T02:53:10;99786.72;;;11.18;91.96
75497;BME280;64074;47.540;19.072;2024-02-26T02:56:20;99787.19;;;11.20;91.04
75497;BME280;64074;47.540;19.072;2024-02-26T02:59:49;99794.03;;;11.17;91.21
75497;BME280;64074;47.540;19.072;2024-02-26T03:03:02;99784.31;;;11.16;91.32
75497;BME280;64074;47.540;19.072;2024-02-26T03:06:10;99783.19;;;11.17;91.23
75497;BME280;64074;47.540;19.072;2024-02-26T03:09:22;99779.97;;;11.15;91.00
75497;BME280;64074;47.540;19.072;2024-02-26T03:12:36;99779.63;;;11.08;91.45
75497;BME280;64074;47.540;19.072;2024-02-26T03:15:50;99779.31;;;11.09;91.72
75497;BME280;64074;47.540;19.072;2024-02-26T03:19:20;99783.50;;;11.16;91.87
75497;BME280;64074;47.540;19.072;2024-02-26T03:22:30;99775.84;;;11.18;91.31
75497;BME280;64074;47.540;19.072;2024-02-26T03:25:44;99785.75;;;11.22;91.39
75497;BME280;64074;47.540;19.072;2024-02-26T03:29:11;99777.13;;;11.20;91.01
75497;BME280;64074;47.540;19.072;2024-02-26T03:32:32;99779.38;;;11.18;90.80
75497;BME280;64074;47.540;19.072;2024-02-26T03:35:53;99772.66;;;11.16;91.16
75497;BME280;64074;47.540;19.072;2024-02-26T03:39:15;99773.75;;;11.15;91.29
75497;BME280;64074;47.540;19.072;2024-02-26T03:42:37;99772.44;;;11.12;91.56
75497;BME280;64074;47.540;19.072;2024-02-26T03:46:00;99766.84;;;11.08;91.85
75497;BME280;64074;47.540;19.072;2024-02-26T03:49:14;99765.84;;;10.96;92.58
75497;BME280;64074;47.540;19.072;2024-02-26T03:52:18;99764.28;;;11.03;91.96
75497;BME280;64074;47.540;19.072;2024-02-26T03:55:25;99757.84;;;10.91;92.58
75497;BME280;64074;47.540;19.072;2024-02-26T03:58:35;99757.34;;;10.89;92.65
75497;BME280;64074;47.540;19.072;2024-02-26T04:01:38;99745.22;;;10.86;92.94
75497;BME280;64074;47.540;19.072;2024-02-26T04:04:46;99752.81;;;10.75;93.23
75497;BME280;64074;47.540;19.072;2024-02-26T04:07:56;99752.69;;;10.58;94.29
75497;BME280;64074;47.540;19.072;2024-02-26T04:11:04;99775.34;;;10.85;94.02
75497;BME280;64074;47.540;19.072;2024-02-26T04:14:18;99763.94;;;10.96;93.12
75497;BME280;64074;47.540;19.072;2024-02-26T04:17:28;99765.00;;;10.87;92.55
75497;BME280;64074;47.540;19.072;2024-02-26T04:21:05;99754.38;;;10.99;91.88
75497;BME280;64074;47.540;19.072;2024-02-26T04:24:14;99754.53;;;10.94;91.91
75497;BME280;64074;47.540;19.072;2024-02-26T04:27:19;99766.59;;;10.88;91.69
75497;BME280;64074;47.540;19.072;2024-02-26T04:30:29;99768.72;;;10.68;92.25
75497;BME280;64074;47.540;19.072;2024-02-26T04:33:39;99761.44;;;10.77;92.33
75497;BME280;64074;47.540;19.072;2024-02-26T04:36:45;99763.91;;;10.65;92.22
75497;BME280;64074;47.540;19.072;2024-02-26T04:40:01;99759.25;;;10.88;92.14
75497;BME280;64074;47.540;19.072;2024-02-26T04:43:30;99764.88;;;10.92;91.50
75497;BME280;64074;47.540;19.072;2024-02-26T04:46:52;99758.34;;;10.93;91.23
75497;BME280;64074;47.540;19.072;2024-02-26T04:50:16;99760.69;;;10.86;91.00
75497;BME280;64074;47.540;19.072;2024-02-26T04:53:30;99754.63;;;10.58;92.11
75497;BME280;64074;47.540;19.072;2024-02-26T04:56:40;99749.94;;;10.72;91.92
75497;BME280;64074;47.540;19.072;2024-02-26T05:00:00;99746.38;;;10.94;91.18
75497;BME280;64074;47.540;19.072;2024-02-26T05:03:12;99751.81;;;10.94;91.01
75497;BME280;64074;47.540;19.072;2024-02-26T05:06:19;99743.91;;;10.84;90.47
75497;BME280;64074;47.540;19.072;2024-02-26T05:09:29;99743.94;;;10.61;91.71
75497;BME280;64074;47.540;19.072;2024-02-26T05:12:45;99744.09;;;10.56;92.04
75497;BME280;64074;47.540;19.072;2024-02-26T05:16:18;99748.09;;;10.59;92.29
75497;BME280;64074;47.540;19.072;2024-02-26T05:19:34;99758.31;;;10.62;92.28
75497;BME280;64074;47.540;19.072;2024-02-26T05:22:48;99753.56;;;10.67;92.46
75497;BME280;64074;47.540;19.072;2024-02-26T05:26:04;99750.16;;;10.62;92.91
75497;BME280;64074;47.540;19.072;2024-02-26T05:29:09;99744.72;;;10.53;92.42
75497;BME280;64074;47.540;19.072;2024-02-26T05:32:20;99750.09;;;10.75;91.82
75497;BME280;64074;47.540;19.072;2024-02-26T05:35:27;99750.09;;;10.75;91.61
75497;BME280;64074;47.540;19.072;2024-02-26T05:38:30;99748.50;;;10.74;91.89
75497;BME280;64074;47.540;19.072;2024-02-26T05:41:39;99748.09;;;10.59;92.32
75497;BME280;64074;47.540;19.072;2024-02-26T05:44:51;99748.50;;;10.74;91.88
75497;BME280;64074;47.540;19.072;2024-02-26T05:48:02;99739.75;;;10.77;91.28
75497;BME280;64074;47.540;19.072;2024-02-26T05:51:31;99746.59;;;10.75;91.36
75497;BME280;64074;47.540;19.072;2024-02-26T05:54:41;99753.25;;;10.69;91.33
75497;BME280;64074;47.540;19.072;2024-02-26T05:57:59;99746.16;;;10.59;91.23
75497;BME280;64074;47.540;19.072;2024-02-26T06:01:19;99750.34;;;10.65;90.83
75497;BME280;64074;47.540;19.072;2024-02-26T06:04:37;99748.09;;;10.90;90.83
75497;BME280;64074;47.540;19.072;2024-02-26T06:07:51;99749.28;;;11.06;90.43
75497;BME280;64074;47.540;19.072;2024-02-26T06:10:57;99750.72;;;11.03;90.75
75497;BME280;64074;47.540;19.072;2024-02-26T06:14:13;99757.34;;;10.89;90.52
75497;BME280;64074;47.540;19.072;2024-02-26T06:17:23;99760.47;;;10.73;90.78
75497;BME280;64074;47.540;19.072;2024-02-26T06:20:35;99764.19;;;10.86;90.35
75497;BME280;64074;47.540;19.072;2024-02-26T06:23:56;99770.50;;;10.73;90.67
75497;BME280;64074;47.540;19.072;2024-02-26T06:27:15;99778.66;;;10.73;90.41
75497;BME280;64074;47.540;19.072;2024-02-26T06:30:33;99780.88;;;10.71;90.82
75497;BME280;64074;47.540;19.072;2024-02-26T06:33:44;99782.06;;;10.65;91.21
75497;BME280;64074;47.540;19.072;2024-02-26T06:36:57;99788.41;;;10.83;90.70
75497;BME280;64074;47.540;19.072;2024-02-26T06:40:08;99784.09;;;10.82;89.89
75497;BME280;64074;47.540;19.072;2024-02-26T06:43:21;99781.41;;;10.82;91.10
75497;BME280;64074;47.540;19.072;2024-02-26T06:46:28;99777.13;;;10.89;90.00
75497;BME280;64074;47.540;19.072;2024-02-26T06:49:40;99773.44;;;10.85;90.25
75497;BME280;64074;47.540;19.072;2024-02-26T06:52:53;99773.44;;;10.85;90.51
75497;BME280;64074;47.540;19.072;2024-02-26T06:56:05;99774.03;;;11.04;90.44
75497;BME280;64074;47.540;19.072;2024-02-26T06:59:18;99784.34;;;11.33;89.59
75497;BME280;64074;47.540;19.072;2024-02-26T07:02:57;99773.44;;;11.16;90.11
75497;BME280;64074;47.540;19.072;2024-02-26T07:21:06;99788.00;;;11.77;88.17
75497;BME280;64074;47.540;19.072;2024-02-26T07:24:18;99783.25;;;11.83;86.75
75497;BME280;64074;47.540;19.072;2024-02-26T07:27:31;99792.56;;;12.08;85.77
75497;BME280;64074;47.540;19.072;2024-02-26T07:30:44;99786.00;;;11.43;87.62
75497;BME280;64074;47.540;19.072;2024-02-26T07:33:54;99781.50;;;11.38;88.39
75497;BME280;64074;47.540;19.072;2024-02-26T07:37:07;99783.31;;;11.60;87.37
75497;BME280;64074;47.540;19.072;2024-02-26T07:40:17;99791.44;;;11.91;87.33
75497;BME280;64074;47.540;19.072;2024-02-26T07:43:23;99798.28;;;11.89;85.95
75497;BME280;64074;47.540;19.072;2024-02-26T07:46:35;99801.34;;;12.05;85.19
75497;BME280;64074;47.540;19.072;2024-02-26T07:49:53;99794.63;;;12.02;86.49
75497;BME280;64074;47.540;19.072;2024-02-26T07:53:07;99797.94;;;11.82;85.32
75497;BME280;64074;47.540;19.072;2024-02-26T07:56:18;99802.66;;;12.16;85.99
75497;BME280;64074;47.540;19.072;2024-02-26T07:59:27;99798.78;;;11.91;85.58
75497;BME280;64074;47.540;19.072;2024-02-26T08:02:39;99799.06;;;11.89;86.03
75497;BME280;64074;47.540;19.072;2024-02-26T08:05:56;99798.94;;;12.12;84.90
75497;BME280;64074;47.540;19.072;2024-02-26T08:09:14;99809.53;;;12.22;85.10
75497;BME280;64074;47.540;19.072;2024-02-26T08:12:26;99806.97;;;12.17;84.39
75497;BME280;64074;47.540;19.072;2024-02-26T08:15:46;99818.16;;;12.24;84.02
75497;BME280;64074;47.540;19.072;2024-02-26T08:18:59;99819.25;;;12.06;84.79
75497;BME280;64074;47.540;19.072;2024-02-26T08:22:09;99812.38;;;12.34;83.58
75497;BME280;64074;47.540;19.072;2024-02-26T08:25:47;99810.16;;;12.53;82.40
75497;BME280;64074;47.540;19.072;2024-02-26T08:29:21;99813.19;;;12.52;82.74
75497;BME280;64074;47.540;19.072;2024-02-26T08:32:28;99811.91;;;12.75;82.57
75497;BME280;64074;47.540;19.072;2024-02-26T08:35:37;99797.31;;;12.80;81.86
75497;BME280;64074;47.540;19.072;2024-02-26T08:38:49;99807.75;;;12.60;82.77
75497;BME280;64074;47.540;19.072;2024-02-26T08:42:01;99795.13;;;12.30;83.66
75497;BME280;64074;47.540;19.072;2024-02-26T08:45:24;99799.13;;;12.24;82.83
75497;BME280;64074;47.540;19.072;2024-02-26T08:48:58;99801.16;;;12.79;81.88
75497;BME280;64074;47.540;19.072;2024-02-26T08:52:26;99802.53;;;13.58;80.48
75497;BME280;64074;47.540;19.072;2024-02-26T08:55:40;99804.78;;;13.85;76.53
75497;BME280;64074;47.540;19.072;2024-02-26T08:58:55;99812.28;;;14.38;73.67
75497;BME280;64074;47.540;19.072;2024-02-26T09:02:09;99808.31;;;15.02;70.74
75497;BME280;64074;47.540;19.072;2024-02-26T09:05:23;99811.00;;;13.94;74.09
75497;BME280;64074;47.540;19.072;2024-02-26T09:08:48;99817.25;;;13.27;76.74
75497;BME280;64074;47.540;19.072;2024-02-26T09:12:06;99819.28;;;13.39;78.13
75497;BME280;64074;47.540;19.072;2024-02-26T09:15:20;99814.97;;;13.29;77.88
75497;BME280;64074;47.540;19.072;2024-02-26T09:18:36;99821.47;;;12.81;79.44
75497;BME280;64074;47.540;19.072;2024-02-26T09:21:59;99818.69;;;13.16;80.00
75497;BME280;64074;47.540;19.072;2024-02-26T09:25:07;99830.97;;;13.39;78.70
75497;BME280;64074;47.540;19.072;2024-02-26T09:28:14;99833.38;;;13.32;78.56
75497;BME280;64074;47.540;19.072;2024-02-26T09:31:28;99825.41;;;13.27;78.79
75497;BME280;64074;47.540;19.072;2024-02-26T09:34:44;99827.38;;;13.56;77.42
75497;BME280;64074;47.540;19.072;2024-02-26T09:37:59;99827.84;;;13.58;77.00
75497;BME280;64074;47.540;19.072;2024-02-26T09:41:14;99822.97;;;13.34;77.65
75497;BME280;64074;47.540;19.072;2024-02-26T09:44:35;99838.50;;;13.42;78.39
75497;BME280;64074;47.540;19.072;2024-02-26T09:47:55;99829.06;;;13.31;78.49
75497;BME280;64074;47.540;19.072;2024-02-26T09:51:05;99832.81;;;13.18;78.25
75497;BME280;64074;47.540;19.072;2024-02-26T09:54:16;99843.28;;;13.37;77.70
75497;BME280;64074;47.540;19.072;2024-02-26T09:57:48;99842.72;;;13.22;78.25
75497;BME280;64074;47.540;19.072;2024-02-26T10:01:13;99845.13;;;13.15;78.17
75497;BME280;64074;47.540;19.072;2024-02-26T10:04:36;99839.06;;;13.18;79.04
75497;BME280;64074;47.540;19.072;2024-02-26T10:07:48;99844.66;;;13.05;79.38
75497;BME280;64074;47.540;19.072;2024-02-26T10:11:19;99834.56;;;13.14;79.33
75497;BME280;64074;47.540;19.072;2024-02-26T10:14:49;99834.56;;;13.05;78.88
75497;BME280;64074;47.540;19.072;2024-02-26T10:18:17;99838.31;;;13.47;78.40
75497;BME280;64074;47.540;19.072;2024-02-26T10:21:27;99831.13;;;13.43;77.57
75497;BME280;64074;47.540;19.072;2024-02-26T10:24:36;99834.13;;;13.50;77.20
75497;BME280;64074;47.540;19.072;2024-02-26T10:27:50;99827.63;;;13.34;77.75
75497;BME280;64074;47.540;19.072;2024-02-26T10:31:03;99823.03;;;13.55;77.29
75497;BME280;64074;47.540;19.072;2024-02-26T10:34:21;99823.31;;;14.21;75.90
75497;BME280;64074;47.540;19.072;2024-02-26T10:37:34;99813.28;;;14.55;73.06
75497;BME280;64074;47.540;19.072;2024-02-26T10:40:46;99823.59;;;14.70;72.62
75497;BME280;64074;47.540;19.072;2024-02-26T10:44:14;99810.63;;;14.67;71.17
75497;BME280;64074;47.540;19.072;2024-02-26T10:47:30;99814.72;;;15.63;69.15
75497;BME280;64074;47.540;19.072;2024-02-26T10:50:46;99804.03;;;16.23;66.33
75497;BME280;64074;47.540;19.072;2024-02-26T10:54:08;99802.63;;;16.41;65.03
75497;BME280;64074;47.540;19.072;2024-02-26T10:57:24;99796.13;;;15.69;65.44
75497;BME280;64074;47.540;19.072;2024-02-26T11:00:59;99795.44;;;15.60;66.32
75497;BME280;64074;47.540;19.072;2024-02-26T11:04:16;99796.66;;;15.50;66.79
75497;BME280;64074;47.540;19.072;2024-02-26T11:07:30;99783.78;;;16.12;65.98
75497;BME280;64074;47.540;19.072;2024-02-26T11:10:47;99797.22;;;15.19;67.57
75497;BME280;64074;47.540;19.072;2024-02-26T11:14:12;99792.81;;;15.51;65.91
75497;BME280;64074;47.540;19.072;2024-02-26T11:17:48;99790.72;;;15.36;65.56
75497;BME280;64074;47.540;19.072;2024-02-26T11:21:18;99795.53;;;16.12;65.28
75497;BME280;64074;47.540;19.072;2024-02-26T11:24:59;99799.53;;;15.90;65.33
75497;BME280;64074;47.540;19.072;2024-02-26T11:28:17;99796.25;;;16.37;64.18
75497;BME280;64074;47.540;19.072;2024-02-26T11:31:31;99795.28;;;16.17;64.39
75497;BME280;64074;47.540;19.072;2024-02-26T11:34:54;99797.00;;;16.50;62.66
75497;BME280;64074;47.540;19.072;2024-02-26T11:38:29;99781.94;;;16.16;62.77
75497;BME280;64074;47.540;19.072;2024-02-26T11:41:57;99778.97;;;16.09;63.70
75497;BME280;64074;47.540;19.072;2024-02-26T11:49:03;99790.53;;;15.90;64.33
75497;BME280;64074;47.540;19.072;2024-02-26T11:52:16;99789.72;;;16.42;61.91
75497;BME280;64074;47.540;19.072;2024-02-26T11:55:37;99789.13;;;17.20;60.11
75497;BME280;64074;47.540;19.072;2024-02-26T11:58:47;99791.03;;;16.88;59.46
75497;BME280;64074;47.540;19.072;2024-02-26T12:02:01;99783.28;;;16.90;60.17
75497;BME280;64074;47.540;19.072;2024-02-26T12:05:19;99790.34;;;17.07;59.90
75497;BME280;64074;47.540;19.072;2024-02-26T12:08:52;99784.25;;;16.98;59.56
75497;BME280;64074;47.540;19.072;2024-02-26T12:12:08;99779.72;;;16.89;60.88
75497;BME280;64074;47.540;19.072;2024-02-26T12:15:55;99780.66;;;16.25;61.47
75497;BME280;64074;47.540;19.072;2024-02-26T12:19:21;99789.25;;;16.12;62.40
75497;BME280;64074;47.540;19.072;2024-02-26T12:22:54;99788.94;;;15.89;63.31
75497;BME280;64074;47.540;19.072;2024-02-26T12:26:16;99785.31;;;15.73;63.91
75497;BME280;64074;47.540;19.072;2024-02-26T12:29:31;99768.13;;;16.24;62.00
75497;BME280;64074;47.540;19.072;2024-02-26T12:32:44;99772.66;;;16.33;61.65
75497;BME280;64074;47.540;19.072;2024-02-26T12:36:05;99772.56;;;17.01;60.74
75497;BME280;64074;47.540;19.072;2024-02-26T12:39:21;99768.75;;;16.74;60.30
75497;BME280;64074;47.540;19.072;2024-02-26T12:42:49;99771.16;;;16.63;60.50
75497;BME280;64074;47.540;19.072;2024-02-26T12:46:06;99775.97;;;16.54;60.33
75497;BME280;64074;47.540;19.072;2024-02-26T12:49:41;99780.03;;;16.04;61.41
75497;BME280;64074;47.540;19.072;2024-02-26T12:52:59;99777.97;;;16.01;62.02
75497;BME280;64074;47.540;19.072;2024-02-26T12:56:24;99779.09;;;16.80;59.52
75497;BME280;64074;47.540;19.072;2024-02-26T13:00:05;99772.81;;;16.80;59.55
75497;BME280;64074;47.540;19.072;2024-02-26T13:03:24;99772.81;;;16.52;59.66
75497;BME280;64074;47.540;19.072;2024-02-26T13:06:31;99773.56;;;17.71;57.56
75497;BME280;64074;47.540;19.072;2024-02-26T13:09:38;99773.31;;;17.45;57.29
75497;BME280;64074;47.540;19.072;2024-02-26T13:12:51;99774.72;;;17.39;57.45
75497;BME280;64074;47.540;19.072;2024-02-26T13:16:05;99777.53;;;17.74;56.24
75497;BME280;64074;47.540;19.072;2024-02-26T13:19:22;99770.28;;;17.66;56.27
75497;BME280;64074;47.540;19.072;2024-02-26T13:22:40;99769.84;;;17.32;55.84
75497;BME280;64074;47.540;19.072;2024-02-26T13:25:56;99758.63;;;16.62;57.38
75497;BME280;64074;47.540;19.072;2024-02-26T13:29:20;99766.88;;;16.50;58.71
75497;BME280;64074;47.540;19.072;2024-02-26T13:32:34;99763.63;;;16.60;59.16
75497;BME280;64074;47.540;19.072;2024-02-26T13:35:58;99768.63;;;16.42;59.28
75497;BME280;64074;47.540;19.072;2024-02-26T13:39:29;99765.66;;;16.47;59.99
75497;BME280;64074;47.540;19.072;2024-02-26T13:42:50;99770.38;;;16.63;59.14
75497;BME280;64074;47.540;19.072;2024-02-26T13:46:08;99764.25;;;16.81;58.22
75497;BME280;64074;47.540;19.072;2024-02-26T13:49:31;99762.47;;;16.73;59.54
75497;BME280;64074;47.540;19.072;2024-02-26T13:52:44;99767.16;;;16.60;58.72
75497;BME280;64074;47.540;19.072;2024-02-26T13:56:05;99768.28;;;16.44;58.36
75497;BME280;64074;47.540;19.072;2024-02-26T13:59:20;99764.84;;;16.19;58.16
75497;BME280;64074;47.540;19.072;2024-02-26T14:03:09;99766.81;;;16.34;57.91
75497;BME280;64074;47.540;19.072;2024-02-26T14:06:15;99762.16;;;16.63;57.37
75497;BME280;64074;47.540;19.072;2024-02-26T14:09:26;99760.09;;;16.59;57.87
75497;BME280;64074;47.540;19.072;2024-02-26T14:12:53;99754.34;;;16.49;58.16
75497;BME280;64074;47.540;19.072;2024-02-26T14:16:24;99752.00;;;16.63;57.12
75497;BME280;64074;47.540;19.072;2024-02-26T14:19:36;99755.59;;;16.79;57.43
75497;BME280;64074;47.540;19.072;2024-02-26T14:23:00;99745.97;;;16.70;57.62
75497;BME280;64074;47.540;19.072;2024-02-26T14:26:45;99740.47;;;16.14;59.55
75497;BME280;64074;47.540;19.072;2024-02-26T14:30:03;99745.31;;;15.92;60.84
75497;BME280;64074;47.540;19.072;2024-02-26T14:33:12;99755.75;;;16.15;60.69
75497;BME280;64074;47.540;19.072;2024-02-26T14:36:24;99750.75;;;16.33;60.08
75497;BME280;64074;47.540;19.072;2024-02-26T14:39:42;99745.28;;;16.33;60.48
75497;BME280;64074;47.540;19.072;2024-02-26T14:42:56;99754.00;;;16.22;60.08
75497;BME280;64074;47.540;19.072;2024-02-26T14:46:13;99755.78;;;16.30;60.97
75497;BME280;64074;47.540;19.072;2024-02-26T14:49:24;99751.72;;;16.24;60.77
75497;BME280;64074;47.540;19.072;2024-02-26T14:52:41;99745.81;;;16.10;60.82
75497;BME280;64074;47.540;19.072;2024-02-26T14:56:04;99751.47;;;15.89;61.84
75497;BME280;64074;47.540;19.072;2024-02-26T14:59:09;99753.88;;;15.79;61.30
75497;BME280;64074;47.540;19.072;2024-02-26T15:02:21;99756.34;;;15.84;61.80
75497;BME280;64074;47.540;19.072;2024-02-26T15:05:35;99759.34;;;15.91;60.44
75497;BME280;64074;47.540;19.072;2024-02-26T15:08:50;99756.25;;;15.80;61.02
75497;BME280;64074;47.540;19.072;2024-02-26T15:12:04;99751.03;;;15.75;61.86
75497;BME280;64074;47.540;19.072;2024-02-26T15:15:22;99764.25;;;15.61;62.05
75497;BME280;64074;47.540;19.072;2024-02-26T15:18:47;99764.00;;;15.54;63.05
75497;BME280;64074;47.540;19.072;2024-02-26T15:22:03;99766.03;;;15.81;62.55
75497;BME280;64074;47.540;19.072;2024-02-26T15:25:13;99771.50;;;15.81;61.92
75497;BME280;64074;47.540;19.072;2024-02-26T15:28:31;99777.91;;;15.61;63.03
75497;BME280;64074;47.540;19.072;2024-02-26T15:31:42;99767.88;;;15.53;63.47
75497;BME280;64074;47.540;19.072;2024-02-26T15:34:50;99773.22;;;15.49;63.46
75497;BME280;64074;47.540;19.072;2024-02-26T15:37:54;99767.06;;;15.52;63.94
75497;BME280;64074;47.540;19.072;2024-02-26T15:41:12;99779.59;;;15.41;64.45
75497;BME280;64074;47.540;19.072;2024-02-26T15:44:18;99781.97;;;15.30;64.10
75497;BME280;64074;47.540;19.072;2024-02-26T15:47:23;99779.94;;;15.27;64.42
75497;BME280;64074;47.540;19.072;2024-02-26T15:50:43;99792.91;;;15.43;64.17
75497;BME280;64074;47.540;19.072;2024-02-26T15:54:06;99793.38;;;15.45;64.50
75497;BME280;64074;47.540;19.072;2024-02-26T15:57:17;99801.91;;;15.55;64.28
75497;BME280;64074;47.540;19.072;2024-02-26T16:00:25;99800.44;;;15.46;64.90
75497;BME280;64074;47.540;19.072;2024-02-26T16:03:30;99791.19;;;15.26;65.25
75497;BME280;64074;47.540;19.072;2024-02-26T16:06:52;99797.06;;;15.03;65.71
75497;BME280;64074;47.540;19.072;2024-02-26T16:10:04;99791.31;;;15.17;65.40
75497;BME280;64074;47.540;19.072;2024-02-26T16:13:16;99804.47;;;15.03;66.33
75497;BME280;64074;47.540;19.072;2024-02-26T16:16:31;99797.84;;;14.92;66.81
75497;BME280;64074;47.540;19.072;2024-02-26T16:19:52;99805.44;;;14.86;66.90
75497;BME280;64074;47.540;19.072;2024-02-26T16:23:06;99806.09;;;14.83;67.33
75497;BME280;64074;47.540;19.072;2024-02-26T16:26:50;99813.03;;;14.81;67.45
75497;BME280;64074;47.540;19.072;2024-02-26T16:29:57;99812.13;;;14.76;67.84
75497;BME280;64074;47.540;19.072;2024-02-26T16:33:05;99823.25;;;14.71;68.07
75497;BME280;64074;47.540;19.072;2024-02-26T16:36:18;99830.38;;;14.64;68.08
75497;BME280;64074;47.540;19.072;2024-02-26T16:39:57;99836.03;;;14.59;68.66
75497;BME280;64074;47.540;19.072;2024-02-26T16:43:06;99839.09;;;14.57;69.08
75497;BME280;64074;47.540;19.072;2024-02-26T16:46:25;99847.22;;;14.45;69.16
75497;BME280;64074;47.540;19.072;2024-02-26T16:49:36;99854.41;;;14.50;69.34
75497;BME280;64074;47.540;19.072;2024-02-26T16:52:53;99856.28;;;14.28;69.93
75497;BME280;64074;47.540;19.072;2024-02-26T16:56:16;99860.28;;;14.31;70.27
75497;BME280;64074;47.540;19.072;2024-02-26T16:59:24;99860.03;;;14.24;70.94
75497;BME280;64074;47.540;19.072;2024-02-26T17:02:38;99859.97;;;14.03;71.93
75497;BME280;64074;47.540;19.072;2024-02-26T17:05:58;99861.97;;;13.94;71.99
75497;BME280;64074;47.540;19.072;2024-02-26T17:09:07;99866.31;;;13.86;72.41
75497;BME280;64074;47.540;19.072;2024-02-26T17:12:25;99872.75;;;13.81;73.53
75497;BME280;64074;47.540;19.072;2024-02-26T17:15:36;99864.31;;;13.74;73.76
75497;BME280;64074;47.540;19.072;2024-02-26T17:19:03;99870.41;;;13.71;73.69
75497;BME280;64074;47.540;19.072;2024-02-26T17:22:28;99871.56;;;13.62;73.78
75497;BME280;64074;47.540;19.072;2024-02-26T17:25:49;99875.44;;;13.52;74.66
75497;BME280;64074;47.540;19.072;2024-02-26T17:29:01;99879.31;;;13.51;75.30